sensor_id;sensor_type;location;lat;lon;timestamp;P1;durP1;ratioP1;P2;durP2;ratioP2
52136;SDS011;69622;49.570;10.986;2023-04-24T00:03:01;4.97;;;2.30;;
52136;SDS011;69622;49.570;10.986;2023-04-24T00:06:04;2.50;;;2.00;;
52136;SDS011;69622;49.570;10.986;2023-04-24T00:09:08;4.70;;;2.00;;
52136;SDS011;69622;49.570;10.986;2023-04-24T00:12:10;3.17;;;1.77;;
52136;SDS011;69622;49.570;10.986;2023-04-24T00:15:12;2.80;;;1.88;;
52136;SDS011;69622;49.570;10.986;2023-04-24T00:18:14;3.20;;;1.92;;
52136;SDS011;69622;49.570;10.986;2023-04-24T00:21:15;7.10;;;2.47;;
52136;SDS011;69622;49.570;10.986;2023-04-24T00:24:19;4.78;;;2.05;;
52136;SDS011;69622;49.570;10.986;2023-04-24T00:27:22;4.45;;;2.25;;
52136;SDS011;69622;49.570;10.986;2023-04-24T00:30:23;3.10;;;1.92;;
52136;SDS011;69622;49.570;10.986;2023-04-24T00:33:25;3.85;;;2.25;;
52136;SDS011;69622;49.570;10.986;2023-04-24T00:36:26;2.70;;;1.73;;
52136;SDS011;69622;49.570;10.986;2023-04-24T00:39:28;3.55;;;2.33;;
52136;SDS011;69622;49.570;10.986;2023-04-24T00:42:29;3.75;;;2.10;;
52136;SDS011;69622;49.570;10.986;2023-04-24T00:45:30;4.38;;;1.98;;
52136;SDS011;69622;49.570;10.986;2023-04-24T00:48:32;3.60;;;2.38;;
52136;SDS011;69622;49.570;10.986;2023-04-24T00:51:35;4.88;;;2.50;;
52136;SDS011;69622;49.570;10.986;2023-04-24T00:54:37;3.00;;;2.38;;
52136;SDS011;69622;49.570;10.986;2023-04-24T00:57:39;6.35;;;2.05;;
52136;SDS011;69622;49.570;10.986;2023-04-24T01:00:40;3.08;;;2.00;;
52136;SDS011;69622;49.570;10.986;2023-04-24T01:03:42;3.95;;;1.88;;
52136;SDS011;69622;49.570;10.986;2023-04-24T01:06:44;2.70;;;2.10;;
52136;SDS011;69622;49.570;10.986;2023-04-24T01:09:46;2.55;;;1.90;;
52136;SDS011;69622;49.570;10.986;2023-04-24T01:12:49;2.22;;;1.70;;
52136;SDS011;69622;49.570;10.986;2023-04-24T01:15:51;3.00;;;1.80;;
52136;SDS011;69622;49.570;10.986;2023-04-24T01:18:52;2.75;;;2.05;;
52136;SDS011;69622;49.570;10.986;2023-04-24T01:21:54;3.50;;;1.88;;
52136;SDS011;69622;49.570;10.986;2023-04-24T01:25:02;3.28;;;1.85;;
52136;SDS011;69622;49.570;10.986;2023-04-24T01:28:06;3.83;;;2.13;;
52136;SDS011;69622;49.570;10.986;2023-04-24T01:31:07;5.18;;;1.73;;
52136;SDS011;69622;49.570;10.986;2023-04-24T01:34:09;3.22;;;1.83;;
52136;SDS011;69622;49.570;10.986;2023-04-24T01:37:11;3.13;;;1.85;;
52136;SDS011;69622;49.570;10.986;2023-04-24T01:40:12;3.15;;;1.60;;
52136;SDS011;69622;49.570;10.986;2023-04-24T01:43:14;1.90;;;1.27;;
52136;SDS011;69622;49.570;10.986;2023-04-24T01:46:15;1.98;;;1.40;;
52136;SDS011;69622;49.570;10.986;2023-04-24T01:49:17;3.05;;;1.75;;
52136;SDS011;69622;49.570;10.986;2023-04-24T01:52:18;5.13;;;2.15;;
52136;SDS011;69622;49.570;10.986;2023-04-24T01:55:20;1.75;;;1.42;;
52136;SDS011;69622;49.570;10.986;2023-04-24T01:58:22;4.35;;;1.60;;
52136;SDS011;69622;49.570;10.986;2023-04-24T02:01:23;3.22;;;1.40;;
52136;SDS011;69622;49.570;10.986;2023-04-24T02:04:26;3.13;;;1.67;;
52136;SDS011;69622;49.570;10.986;2023-04-24T02:07:27;6.18;;;1.67;;
52136;SDS011;69622;49.570;10.986;2023-04-24T02:10:29;2.58;;;1.48;;
52136;SDS011;69622;49.570;10.986;2023-04-24T02:13:30;1.75;;;1.50;;
52136;SDS011;69622;49.570;10.986;2023-04-24T02:16:31;2.03;;;1.30;;
52136;SDS011;69622;49.570;10.986;2023-04-24T02:19:34;3.15;;;1.40;;
52136;SDS011;69622;49.570;10.986;2023-04-24T02:22:35;2.85;;;1.10;;
52136;SDS011;69622;49.570;10.986;2023-04-24T02:25:37;1.77;;;1.20;;
52136;SDS011;69622;49.570;10.986;2023-04-24T02:28:38;1.52;;;1.20;;
52136;SDS011;69622;49.570;10.986;2023-04-24T02:31:39;3.95;;;1.10;;
52136;SDS011;69622;49.570;10.986;2023-04-24T02:34:41;1.67;;;1.20;;
52136;SDS011;69622;49.570;10.986;2023-04-24T02:37:42;2.40;;;1.48;;
52136;SDS011;69622;49.570;10.986;2023-04-24T02:40:44;1.70;;;1.00;;
52136;SDS011;69622;49.570;10.986;2023-04-24T02:43:45;1.25;;;0.90;;
52136;SDS011;69622;49.570;10.986;2023-04-24T02:46:47;6.97;;;1.45;;
52136;SDS011;69622;49.570;10.986;2023-04-24T02:49:48;2.40;;;1.52;;
52136;SDS011;69622;49.570;10.986;2023-04-24T02:52:49;2.00;;;1.30;;
52136;SDS011;69622;49.570;10.986;2023-04-24T02:55:51;3.58;;;1.10;;
52136;SDS011;69622;49.570;10.986;2023-04-24T02:58:52;3.50;;;1.00;;
52136;SDS011;69622;49.570;10.986;2023-04-24T03:01:53;2.15;;;0.88;;
52136;SDS011;69622;49.570;10.986;2023-04-24T03:04:55;2.65;;;0.95;;
52136;SDS011;69622;49.570;10.986;2023-04-24T03:07:58;1.77;;;0.90;;
52136;SDS011;69622;49.570;10.986;2023-04-24T03:10:59;4.93;;;4.43;;
52136;SDS011;69622;49.570;10.986;2023-04-24T03:14:01;2.28;;;1.45;;
52136;SDS011;69622;49.570;10.986;2023-04-24T03:17:02;1.23;;;0.95;;
52136;SDS011;69622;49.570;10.986;2023-04-24T03:20:03;1.58;;;0.98;;
52136;SDS011;69622;49.570;10.986;2023-04-24T03:23:06;1.13;;;0.70;;
52136;SDS011;69622;49.570;10.986;2023-04-24T03:26:08;1.75;;;0.80;;
52136;SDS011;69622;49.570;10.986;2023-04-24T03:29:09;1.20;;;0.70;;
52136;SDS011;69622;49.570;10.986;2023-04-24T03:32:10;2.97;;;1.00;;
52136;SDS011;69622;49.570;10.986;2023-04-24T03:35:12;6.70;;;1.42;;
52136;SDS011;69622;49.570;10.986;2023-04-24T03:38:13;3.15;;;0.70;;
52136;SDS011;69622;49.570;10.986;2023-04-24T03:41:15;6.05;;;1.13;;
52136;SDS011;69622;49.570;10.986;2023-04-24T03:44:16;1.20;;;0.88;;
52136;SDS011;69622;49.570;10.986;2023-04-24T03:47:17;2.60;;;0.73;;
52136;SDS011;69622;49.570;10.986;2023-04-24T03:50:19;1.65;;;0.75;;
52136;SDS011;69622;49.570;10.986;2023-04-24T03:53:21;2.35;;;0.90;;
52136;SDS011;69622;49.570;10.986;2023-04-24T03:56:22;1.75;;;1.10;;
52136;SDS011;69622;49.570;10.986;2023-04-24T03:59:24;2.33;;;1.10;;
52136;SDS011;69622;49.570;10.986;2023-04-24T04:02:25;1.25;;;0.80;;
52136;SDS011;69622;49.570;10.986;2023-04-24T04:05:27;1.55;;;0.57;;
52136;SDS011;69622;49.570;10.986;2023-04-24T04:08:28;3.97;;;1.25;;
52136;SDS011;69622;49.570;10.986;2023-04-24T04:11:30;5.28;;;0.90;;
52136;SDS011;69622;49.570;10.986;2023-04-24T04:14:31;3.17;;;1.17;;
52136;SDS011;69622;49.570;10.986;2023-04-24T04:17:33;5.18;;;1.02;;
52136;SDS011;69622;49.570;10.986;2023-04-24T04:20:34;1.17;;;0.88;;
52136;SDS011;69622;49.570;10.986;2023-04-24T04:23:35;2.97;;;1.10;;
52136;SDS011;69622;49.570;10.986;2023-04-24T04:26:37;1.58;;;0.90;;
52136;SDS011;69622;49.570;10.986;2023-04-24T04:29:39;2.28;;;1.25;;
52136;SDS011;69622;49.570;10.986;2023-04-24T04:32:41;3.97;;;1.10;;
52136;SDS011;69622;49.570;10.986;2023-04-24T04:35:43;1.70;;;1.05;;
52136;SDS011;69622;49.570;10.986;2023-04-24T04:38:44;5.63;;;1.42;;
52136;SDS011;69622;49.570;10.986;2023-04-24T04:41:45;4.38;;;1.35;;
52136;SDS011;69622;49.570;10.986;2023-04-24T04:44:50;4.68;;;1.20;;
52136;SDS011;69622;49.570;10.986;2023-04-24T04:47:51;1.38;;;1.20;;
52136;SDS011;69622;49.570;10.986;2023-04-24T04:50:53;1.90;;;1.10;;
52136;SDS011;69622;49.570;10.986;2023-04-24T04:53:54;1.90;;;1.20;;
52136;SDS011;69622;49.570;10.986;2023-04-24T04:56:56;12.32;;;1.52;;
52136;SDS011;69622;49.570;10.986;2023-04-24T04:59:58;1.75;;;1.00;;
52136;SDS011;69622;49.570;10.986;2023-04-24T05:02:59;3.80;;;1.30;;
52136;SDS011;69622;49.570;10.986;2023-04-24T05:06:19;3.50;;;1.35;;
52136;SDS011;69622;49.570;10.986;2023-04-24T05:09:24;1.85;;;1.23;;
52136;SDS011;69622;49.570;10.986;2023-04-24T05:12:28;1.42;;;0.98;;
52136;SDS011;69622;49.570;10.986;2023-04-24T05:15:29;2.53;;;1.40;;
52136;SDS011;69622;49.570;10.986;2023-04-24T05:18:31;3.08;;;1.48;;
52136;SDS011;69622;49.570;10.986;2023-04-24T05:21:33;5.40;;;1.60;;
52136;SDS011;69622;49.570;10.986;2023-04-24T05:24:34;3.30;;;1.40;;
52136;SDS011;69622;49.570;10.986;2023-04-24T05:27:36;2.28;;;1.70;;
52136;SDS011;69622;49.570;10.986;2023-04-24T05:30:37;2.75;;;1.55;;
52136;SDS011;69622;49.570;10.986;2023-04-24T05:33:39;2.47;;;1.40;;
52136;SDS011;69622;49.570;10.986;2023-04-24T05:36:40;3.60;;;1.38;;
52136;SDS011;69622;49.570;10.986;2023-04-24T05:39:42;3.88;;;1.80;;
52136;SDS011;69622;49.570;10.986;2023-04-24T05:42:44;3.55;;;1.08;;
52136;SDS011;69622;49.570;10.986;2023-04-24T05:45:45;4.90;;;1.60;;
52136;SDS011;69622;49.570;10.986;2023-04-24T05:48:47;1.95;;;1.10;;
52136;SDS011;69622;49.570;10.986;2023-04-24T05:51:48;4.20;;;1.40;;
52136;SDS011;69622;49.570;10.986;2023-04-24T05:54:50;2.03;;;1.30;;
52136;SDS011;69622;49.570;10.986;2023-04-24T05:57:51;2.15;;;1.52;;
52136;SDS011;69622;49.570;10.986;2023-04-24T06:00:53;2.83;;;1.60;;
52136;SDS011;69622;49.570;10.986;2023-04-24T06:03:54;4.15;;;1.20;;
52136;SDS011;69622;49.570;10.986;2023-04-24T06:06:56;4.32;;;1.58;;
52136;SDS011;69622;49.570;10.986;2023-04-24T06:09:57;1.48;;;1.20;;
52136;SDS011;69622;49.570;10.986;2023-04-24T06:12:59;2.72;;;1.00;;
52136;SDS011;69622;49.570;10.986;2023-04-24T06:16:01;2.55;;;1.02;;
52136;SDS011;69622;49.570;10.986;2023-04-24T06:19:03;4.35;;;1.17;;
52136;SDS011;69622;49.570;10.986;2023-04-24T06:22:04;1.77;;;1.00;;
52136;SDS011;69622;49.570;10.986;2023-04-24T06:25:06;3.63;;;1.27;;
52136;SDS011;69622;49.570;10.986;2023-04-24T06:28:08;2.25;;;1.30;;
52136;SDS011;69622;49.570;10.986;2023-04-24T06:31:09;4.10;;;1.10;;
52136;SDS011;69622;49.570;10.986;2023-04-24T06:34:11;5.47;;;1.08;;
52136;SDS011;69622;49.570;10.986;2023-04-24T06:37:12;3.20;;;0.80;;
52136;SDS011;69622;49.570;10.986;2023-04-24T06:40:14;1.80;;;0.90;;
52136;SDS011;69622;49.570;10.986;2023-04-24T06:43:15;1.98;;;1.00;;
52136;SDS011;69622;49.570;10.986;2023-04-24T06:46:17;1.85;;;0.85;;
52136;SDS011;69622;49.570;10.986;2023-04-24T06:49:18;0.98;;;0.70;;
52136;SDS011;69622;49.570;10.986;2023-04-24T06:52:20;3.03;;;0.70;;
52136;SDS011;69622;49.570;10.986;2023-04-24T06:55:21;1.77;;;0.80;;
52136;SDS011;69622;49.570;10.986;2023-04-24T06:58:23;1.23;;;0.88;;
52136;SDS011;69622;49.570;10.986;2023-04-24T07:01:25;2.13;;;1.02;;
52136;SDS011;69622;49.570;10.986;2023-04-24T07:04:27;1.00;;;0.68;;
52136;SDS011;69622;49.570;10.986;2023-04-24T07:07:29;1.58;;;0.60;;
52136;SDS011;69622;49.570;10.986;2023-04-24T07:10:30;0.60;;;0.50;;
52136;SDS011;69622;49.570;10.986;2023-04-24T07:13:32;1.73;;;0.80;;
52136;SDS011;69622;49.570;10.986;2023-04-24T07:16:33;5.85;;;1.08;;
52136;SDS011;69622;49.570;10.986;2023-04-24T07:19:35;1.30;;;0.80;;
52136;SDS011;69622;49.570;10.986;2023-04-24T07:22:39;1.17;;;0.80;;
52136;SDS011;69622;49.570;10.986;2023-04-24T07:25:41;1.20;;;1.05;;
52136;SDS011;69622;49.570;10.986;2023-04-24T07:28:43;0.88;;;0.80;;
52136;SDS011;69622;49.570;10.986;2023-04-24T07:31:44;1.05;;;0.80;;
52136;SDS011;69622;49.570;10.986;2023-04-24T07:34:46;8.02;;;1.17;;
52136;SDS011;69622;49.570;10.986;2023-04-24T07:37:47;6.10;;;0.90;;
52136;SDS011;69622;49.570;10.986;2023-04-24T07:40:49;2.35;;;1.13;;
52136;SDS011;69622;49.570;10.986;2023-04-24T07:43:50;1.15;;;0.82;;
52136;SDS011;69622;49.570;10.986;2023-04-24T07:46:52;4.55;;;1.38;;
52136;SDS011;69622;49.570;10.986;2023-04-24T07:49:53;1.40;;;1.10;;
52136;SDS011;69622;49.570;10.986;2023-04-24T07:52:55;1.77;;;1.02;;
52136;SDS011;69622;49.570;10.986;2023-04-24T07:55:56;2.92;;;1.17;;
52136;SDS011;69622;49.570;10.986;2023-04-24T07:58:57;1.77;;;1.42;;
52136;SDS011;69622;49.570;10.986;2023-04-24T08:01:59;2.47;;;1.45;;
52136;SDS011;69622;49.570;10.986;2023-04-24T08:05:02;2.90;;;1.55;;
52136;SDS011;69622;49.570;10.986;2023-04-24T08:08:04;4.07;;;1.40;;
52136;SDS011;69622;49.570;10.986;2023-04-24T08:11:06;1.80;;;1.20;;
52136;SDS011;69622;49.570;10.986;2023-04-24T08:14:07;1.63;;;1.33;;
52136;SDS011;69622;49.570;10.986;2023-04-24T08:17:09;2.67;;;1.40;;
52136;SDS011;69622;49.570;10.986;2023-04-24T08:20:10;1.95;;;1.48;;
52136;SDS011;69622;49.570;10.986;2023-04-24T08:23:15;2.60;;;1.30;;
52136;SDS011;69622;49.570;10.986;2023-04-24T08:26:17;3.50;;;1.70;;
52136;SDS011;69622;49.570;10.986;2023-04-24T08:29:18;4.68;;;1.75;;
52136;SDS011;69622;49.570;10.986;2023-04-24T08:32:20;2.40;;;1.80;;
52136;SDS011;69622;49.570;10.986;2023-04-24T08:35:21;4.55;;;1.90;;
52136;SDS011;69622;49.570;10.986;2023-04-24T08:38:24;3.30;;;2.08;;
52136;SDS011;69622;49.570;10.986;2023-04-24T08:41:26;6.57;;;2.50;;
52136;SDS011;69622;49.570;10.986;2023-04-24T08:44:28;5.13;;;2.05;;
52136;SDS011;69622;49.570;10.986;2023-04-24T08:47:29;2.67;;;1.95;;
52136;SDS011;69622;49.570;10.986;2023-04-24T08:50:32;3.50;;;2.15;;
52136;SDS011;69622;49.570;10.986;2023-04-24T08:53:34;4.13;;;2.45;;
52136;SDS011;69622;49.570;10.986;2023-04-24T08:56:36;4.22;;;1.88;;
52136;SDS011;69622;49.570;10.986;2023-04-24T08:59:40;3.05;;;1.90;;
52136;SDS011;69622;49.570;10.986;2023-04-24T09:02:43;2.70;;;1.85;;
52136;SDS011;69622;49.570;10.986;2023-04-24T09:05:46;2.95;;;2.22;;
52136;SDS011;69622;49.570;10.986;2023-04-24T09:08:49;2.92;;;1.90;;
52136;SDS011;69622;49.570;10.986;2023-04-24T09:11:55;4.10;;;2.38;;
52136;SDS011;69622;49.570;10.986;2023-04-24T09:14:58;3.17;;;2.17;;
52136;SDS011;69622;49.570;10.986;2023-04-24T09:18:01;3.33;;;2.60;;
52136;SDS011;69622;49.570;10.986;2023-04-24T09:21:12;2.22;;;2.00;;
52136;SDS011;69622;49.570;10.986;2023-04-24T09:24:15;4.88;;;1.90;;
52136;SDS011;69622;49.570;10.986;2023-04-24T09:27:23;3.28;;;1.60;;
52136;SDS011;69622;49.570;10.986;2023-04-24T09:30:25;2.00;;;1.77;;
52136;SDS011;69622;49.570;10.986;2023-04-24T09:33:26;2.00;;;1.42;;
52136;SDS011;69622;49.570;10.986;2023-04-24T09:39:35;3.80;;;2.33;;
52136;SDS011;69622;49.570;10.986;2023-04-24T09:42:36;4.10;;;2.00;;
52136;SDS011;69622;49.570;10.986;2023-04-24T09:45:38;1.85;;;1.65;;
52136;SDS011;69622;49.570;10.986;2023-04-24T09:48:41;3.17;;;2.15;;
52136;SDS011;69622;49.570;10.986;2023-04-24T09:51:42;1.63;;;1.35;;
52136;SDS011;69622;49.570;10.986;2023-04-24T09:54:46;4.57;;;2.00;;
52136;SDS011;69622;49.570;10.986;2023-04-24T09:57:55;3.10;;;1.90;;
52136;SDS011;69622;49.570;10.986;2023-04-24T10:00:58;7.03;;;1.70;;
52136;SDS011;69622;49.570;10.986;2023-04-24T10:03:59;2.78;;;1.80;;
52136;SDS011;69622;49.570;10.986;2023-04-24T10:07:02;4.30;;;2.00;;
52136;SDS011;69622;49.570;10.986;2023-04-24T10:10:07;3.65;;;2.20;;
52136;SDS011;69622;49.570;10.986;2023-04-24T10:13:10;4.05;;;1.70;;
52136;SDS011;69622;49.570;10.986;2023-04-24T10:16:12;4.03;;;1.30;;
52136;SDS011;69622;49.570;10.986;2023-04-24T10:19:14;1.42;;;1.10;;
52136;SDS011;69622;49.570;10.986;2023-04-24T10:22:17;2.40;;;1.92;;
52136;SDS011;69622;49.570;10.986;2023-04-24T10:25:26;3.90;;;1.60;;
52136;SDS011;69622;49.570;10.986;2023-04-24T10:28:29;3.95;;;0.70;;
52136;SDS011;69622;49.570;10.986;2023-04-24T10:31:33;0.82;;;0.75;;
52136;SDS011;69622;49.570;10.986;2023-04-24T10:34:34;1.17;;;0.65;;
52136;SDS011;69622;49.570;10.986;2023-04-24T10:37:38;0.98;;;0.55;;
52136;SDS011;69622;49.570;10.986;2023-04-24T10:40:43;0.80;;;0.70;;
52136;SDS011;69622;49.570;10.986;2023-04-24T10:43:45;1.08;;;0.68;;
52136;SDS011;69622;49.570;10.986;2023-04-24T10:46:52;2.13;;;0.77;;
52136;SDS011;69622;49.570;10.986;2023-04-24T10:49:55;0.90;;;0.60;;
52136;SDS011;69622;49.570;10.986;2023-04-24T10:53:04;1.20;;;0.90;;
52136;SDS011;69622;49.570;10.986;2023-04-24T10:56:08;2.45;;;0.60;;
52136;SDS011;69622;49.570;10.986;2023-04-24T10:59:10;2.25;;;0.77;;
52136;SDS011;69622;49.570;10.986;2023-04-24T11:02:35;2.73;;;0.90;;
52136;SDS011;69622;49.570;10.986;2023-04-24T11:08:44;1.52;;;0.80;;
52136;SDS011;69622;49.570;10.986;2023-04-24T11:11:46;1.33;;;0.93;;
52136;SDS011;69622;49.570;10.986;2023-04-24T11:17:59;1.60;;;1.00;;
52136;SDS011;69622;49.570;10.986;2023-04-24T11:21:09;2.58;;;1.33;;
52136;SDS011;69622;49.570;10.986;2023-04-24T11:24:28;4.97;;;1.52;;
52136;SDS011;69622;49.570;10.986;2023-04-24T11:27:40;2.05;;;1.60;;
52136;SDS011;69622;49.570;10.986;2023-04-24T11:30:43;2.58;;;1.30;;
52136;SDS011;69622;49.570;10.986;2023-04-24T11:33:44;1.95;;;1.33;;
52136;SDS011;69622;49.570;10.986;2023-04-24T11:36:46;1.95;;;1.35;;
52136;SDS011;69622;49.570;10.986;2023-04-24T11:39:52;2.35;;;1.50;;
52136;SDS011;69622;49.570;10.986;2023-04-24T11:42:55;2.53;;;1.48;;
52136;SDS011;69622;49.570;10.986;2023-04-24T11:45:59;1.63;;;1.15;;
52136;SDS011;69622;49.570;10.986;2023-04-24T11:49:01;1.65;;;1.20;;
52136;SDS011;69622;49.570;10.986;2023-04-24T11:52:02;5.80;;;1.63;;
52136;SDS011;69622;49.570;10.986;2023-04-24T11:55:06;2.45;;;1.45;;
52136;SDS011;69622;49.570;10.986;2023-04-24T11:58:09;1.73;;;1.10;;
52136;SDS011;69622;49.570;10.986;2023-04-24T12:01:10;1.73;;;1.20;;
52136;SDS011;69622;49.570;10.986;2023-04-24T12:04:13;2.55;;;1.45;;
52136;SDS011;69622;49.570;10.986;2023-04-24T12:07:15;2.38;;;2.08;;
52136;SDS011;69622;49.570;10.986;2023-04-24T12:10:23;4.00;;;2.13;;
52136;SDS011;69622;49.570;10.986;2023-04-24T12:13:26;2.92;;;1.95;;
52136;SDS011;69622;49.570;10.986;2023-04-24T12:16:28;2.95;;;1.80;;
52136;SDS011;69622;49.570;10.986;2023-04-24T12:19:29;2.35;;;1.98;;
52136;SDS011;69622;49.570;10.986;2023-04-24T12:25:59;2.60;;;1.83;;
52136;SDS011;69622;49.570;10.986;2023-04-24T12:29:02;5.25;;;2.10;;
52136;SDS011;69622;49.570;10.986;2023-04-24T12:32:05;2.42;;;2.10;;
52136;SDS011;69622;49.570;10.986;2023-04-24T12:35:21;2.30;;;1.90;;
52136;SDS011;69622;49.570;10.986;2023-04-24T12:38:25;1.90;;;1.70;;
52136;SDS011;69622;49.570;10.986;2023-04-24T12:41:30;2.53;;;1.85;;
52136;SDS011;69622;49.570;10.986;2023-04-24T12:44:32;2.25;;;1.52;;
52136;SDS011;69622;49.570;10.986;2023-04-24T12:47:35;5.55;;;1.90;;
52136;SDS011;69622;49.570;10.986;2023-04-24T12:50:37;3.17;;;1.50;;
52136;SDS011;69622;49.570;10.986;2023-04-24T12:53:39;3.45;;;1.50;;
52136;SDS011;69622;49.570;10.986;2023-04-24T12:56:41;2.65;;;1.55;;
52136;SDS011;69622;49.570;10.986;2023-04-24T12:59:42;2.53;;;1.40;;
52136;SDS011;69622;49.570;10.986;2023-04-24T13:02:44;5.80;;;1.50;;
52136;SDS011;69622;49.570;10.986;2023-04-24T13:05:46;2.67;;;1.27;;
52136;SDS011;69622;49.570;10.986;2023-04-24T13:08:47;3.75;;;1.50;;
52136;SDS011;69622;49.570;10.986;2023-04-24T13:11:49;1.98;;;1.45;;
52136;SDS011;69622;49.570;10.986;2023-04-24T13:14:51;5.03;;;1.70;;
52136;SDS011;69622;49.570;10.986;2023-04-24T13:17:52;2.05;;;1.60;;
52136;SDS011;69622;49.570;10.986;2023-04-24T13:20:54;2.78;;;1.45;;
52136;SDS011;69622;49.570;10.986;2023-04-24T13:23:56;4.40;;;1.38;;
52136;SDS011;69622;49.570;10.986;2023-04-24T13:26:57;2.20;;;1.48;;
52136;SDS011;69622;49.570;10.986;2023-04-24T13:29:59;2.35;;;1.33;;
52136;SDS011;69622;49.570;10.986;2023-04-24T13:33:01;2.85;;;1.35;;
52136;SDS011;69622;49.570;10.986;2023-04-24T13:36:02;1.92;;;1.60;;
52136;SDS011;69622;49.570;10.986;2023-04-24T13:39:04;5.95;;;2.05;;
52136;SDS011;69622;49.570;10.986;2023-04-24T13:42:06;1.90;;;1.60;;
52136;SDS011;69622;49.570;10.986;2023-04-24T13:45:08;2.33;;;1.50;;
52136;SDS011;69622;49.570;10.986;2023-04-24T13:48:25;3.92;;;1.58;;
52136;SDS011;69622;49.570;10.986;2023-04-24T13:51:27;1.42;;;1.23;;
52136;SDS011;69622;49.570;10.986;2023-04-24T13:54:28;2.28;;;1.10;;
52136;SDS011;69622;49.570;10.986;2023-04-24T13:57:30;1.42;;;1.33;;
52136;SDS011;69622;49.570;10.986;2023-04-24T14:00:32;2.30;;;1.00;;
52136;SDS011;69622;49.570;10.986;2023-04-24T14:03:33;2.33;;;1.20;;
52136;SDS011;69622;49.570;10.986;2023-04-24T14:06:35;3.38;;;1.42;;
52136;SDS011;69622;49.570;10.986;2023-04-24T14:09:36;6.68;;;1.95;;
52136;SDS011;69622;49.570;10.986;2023-04-24T14:12:38;2.53;;;1.55;;
52136;SDS011;69622;49.570;10.986;2023-04-24T14:15:40;2.58;;;2.05;;
52136;SDS011;69622;49.570;10.986;2023-04-24T14:18:42;2.58;;;1.88;;
52136;SDS011;69622;49.570;10.986;2023-04-24T14:21:43;2.22;;;1.90;;
52136;SDS011;69622;49.570;10.986;2023-04-24T14:24:45;2.92;;;1.42;;
52136;SDS011;69622;49.570;10.986;2023-04-24T14:27:46;2.83;;;2.47;;
52136;SDS011;69622;49.570;10.986;2023-04-24T14:30:48;2.38;;;1.70;;
52136;SDS011;69622;49.570;10.986;2023-04-24T14:33:50;3.00;;;1.75;;
52136;SDS011;69622;49.570;10.986;2023-04-24T14:36:52;1.92;;;1.60;;
52136;SDS011;69622;49.570;10.986;2023-04-24T14:39:53;3.33;;;1.52;;
52136;SDS011;69622;49.570;10.986;2023-04-24T14:43:15;2.08;;;1.52;;
52136;SDS011;69622;49.570;10.986;2023-04-24T14:46:16;2.80;;;1.35;;
52136;SDS011;69622;49.570;10.986;2023-04-24T14:49:18;2.80;;;1.40;;
52136;SDS011;69622;49.570;10.986;2023-04-24T14:52:19;2.47;;;1.60;;
52136;SDS011;69622;49.570;10.986;2023-04-24T14:55:21;2.58;;;1.63;;
52136;SDS011;69622;49.570;10.986;2023-04-24T14:58:22;2.53;;;1.67;;
52136;SDS011;69622;49.570;10.986;2023-04-24T15:01:24;1.98;;;1.77;;
52136;SDS011;69622;49.570;10.986;2023-04-24T15:04:25;4.32;;;2.20;;
52136;SDS011;69622;49.570;10.986;2023-04-24T15:07:28;2.40;;;1.90;;
52136;SDS011;69622;49.570;10.986;2023-04-24T15:10:30;2.53;;;2.33;;
52136;SDS011;69622;49.570;10.986;2023-04-24T15:13:31;3.90;;;2.25;;
52136;SDS011;69622;49.570;10.986;2023-04-24T15:16:33;3.70;;;2.17;;
52136;SDS011;69622;49.570;10.986;2023-04-24T15:19:35;3.63;;;2.00;;
52136;SDS011;69622;49.570;10.986;2023-04-24T15:22:36;3.50;;;1.92;;
52136;SDS011;69622;49.570;10.986;2023-04-24T15:25:37;2.83;;;2.00;;
52136;SDS011;69622;49.570;10.986;2023-04-24T15:28:39;1.90;;;1.63;;
52136;SDS011;69622;49.570;10.986;2023-04-24T15:31:41;4.20;;;1.70;;
52136;SDS011;69622;49.570;10.986;2023-04-24T15:34:42;2.58;;;2.00;;
52136;SDS011;69622;49.570;10.986;2023-04-24T15:37:46;3.35;;;2.22;;
52136;SDS011;69622;49.570;10.986;2023-04-24T15:40:47;2.47;;;1.90;;
52136;SDS011;69622;49.570;10.986;2023-04-24T15:43:49;2.72;;;1.90;;
52136;SDS011;69622;49.570;10.986;2023-04-24T15:46:50;3.25;;;2.22;;
52136;SDS011;69622;49.570;10.986;2023-04-24T15:49:52;4.53;;;2.10;;
52136;SDS011;69622;49.570;10.986;2023-04-24T15:52:54;3.10;;;1.73;;
52136;SDS011;69622;49.570;10.986;2023-04-24T15:55:55;3.30;;;2.17;;
52136;SDS011;69622;49.570;10.986;2023-04-24T15:58:58;2.97;;;2.20;;
52136;SDS011;69622;49.570;10.986;2023-04-24T16:02:00;3.60;;;2.53;;
52136;SDS011;69622;49.570;10.986;2023-04-24T16:05:05;3.75;;;2.50;;
52136;SDS011;69622;49.570;10.986;2023-04-24T16:08:07;5.20;;;2.35;;
52136;SDS011;69622;49.570;10.986;2023-04-24T16:11:08;5.63;;;2.22;;
52136;SDS011;69622;49.570;10.986;2023-04-24T16:14:10;4.50;;;1.95;;
52136;SDS011;69622;49.570;10.986;2023-04-24T16:17:12;3.22;;;2.38;;
52136;SDS011;69622;49.570;10.986;2023-04-24T16:20:14;2.85;;;2.17;;
52136;SDS011;69622;49.570;10.986;2023-04-24T16:23:15;6.93;;;2.33;;
52136;SDS011;69622;49.570;10.986;2023-04-24T16:26:17;4.72;;;2.25;;
52136;SDS011;69622;49.570;10.986;2023-04-24T16:29:19;2.67;;;2.30;;
52136;SDS011;69622;49.570;10.986;2023-04-24T16:32:20;5.05;;;2.88;;
52136;SDS011;69622;49.570;10.986;2023-04-24T16:35:22;4.28;;;2.70;;
52136;SDS011;69622;49.570;10.986;2023-04-24T16:38:23;4.45;;;2.70;;
52136;SDS011;69622;49.570;10.986;2023-04-24T16:41:26;5.18;;;2.60;;
52136;SDS011;69622;49.570;10.986;2023-04-24T16:44:28;3.13;;;2.28;;
52136;SDS011;69622;49.570;10.986;2023-04-24T16:47:29;2.95;;;2.50;;
52136;SDS011;69622;49.570;10.986;2023-04-24T16:50:31;3.05;;;2.63;;
52136;SDS011;69622;49.570;10.986;2023-04-24T16:53:33;2.95;;;2.50;;
52136;SDS011;69622;49.570;10.986;2023-04-24T16:56:34;4.10;;;2.63;;
52136;SDS011;69622;49.570;10.986;2023-04-24T16:59:35;2.72;;;2.30;;
52136;SDS011;69622;49.570;10.986;2023-04-24T17:02:38;3.15;;;2.40;;
52136;SDS011;69622;49.570;10.986;2023-04-24T17:05:39;5.97;;;2.47;;
52136;SDS011;69622;49.570;10.986;2023-04-24T17:08:41;6.15;;;2.65;;
52136;SDS011;69622;49.570;10.986;2023-04-24T17:11:42;4.45;;;2.50;;
52136;SDS011;69622;49.570;10.986;2023-04-24T17:14:44;4.22;;;2.70;;
52136;SDS011;69622;49.570;10.986;2023-04-24T17:17:45;5.20;;;2.53;;
52136;SDS011;69622;49.570;10.986;2023-04-24T17:20:47;6.63;;;3.83;;
52136;SDS011;69622;49.570;10.986;2023-04-24T17:23:48;3.35;;;2.80;;
52136;SDS011;69622;49.570;10.986;2023-04-24T17:26:50;4.13;;;2.25;;
52136;SDS011;69622;49.570;10.986;2023-04-24T17:29:53;5.38;;;2.63;;
52136;SDS011;69622;49.570;10.986;2023-04-24T17:32:54;5.00;;;2.78;;
52136;SDS011;69622;49.570;10.986;2023-04-24T17:35:56;2.95;;;2.50;;
52136;SDS011;69622;49.570;10.986;2023-04-24T17:38:59;5.60;;;2.95;;
52136;SDS011;69622;49.570;10.986;2023-04-24T17:42:00;4.28;;;2.85;;
52136;SDS011;69622;49.570;10.986;2023-04-24T17:45:02;5.57;;;2.85;;
52136;SDS011;69622;49.570;10.986;2023-04-24T17:48:04;7.80;;;3.00;;
52136;SDS011;69622;49.570;10.986;2023-04-24T17:51:05;5.07;;;2.97;;
52136;SDS011;69622;49.570;10.986;2023-04-24T17:54:07;3.65;;;2.95;;
52136;SDS011;69622;49.570;10.986;2023-04-24T17:57:08;6.80;;;2.95;;
52136;SDS011;69622;49.570;10.986;2023-04-24T18:00:10;3.20;;;2.80;;
52136;SDS011;69622;49.570;10.986;2023-04-24T18:03:12;3.75;;;2.75;;
52136;SDS011;69622;49.570;10.986;2023-04-24T18:06:13;4.28;;;2.72;;
52136;SDS011;69622;49.570;10.986;2023-04-24T18:09:17;6.38;;;2.60;;
52136;SDS011;69622;49.570;10.986;2023-04-24T18:12:20;3.70;;;2.60;;
52136;SDS011;69622;49.570;10.986;2023-04-24T18:15:22;4.43;;;2.97;;